sensor_id;sensor_type;location;lat;lon;timestamp;P1;durP1;ratioP1;P2;durP2;ratioP2
6926;SDS011;3503;50.07605000;8.86719200;2023-05-17T00:12:19;7.10;;;1.20;;
6926;SDS011;3503;50.07605000;8.86719200;2023-05-17T00:27:22;2.63;;;1.00;;
6926;SDS011;3503;50.07605000;8.86719200;2023-05-17T00:42:25;4.30;;;1.10;;
6926;SDS011;3503;50.07605000;8.86719200;2023-05-17T00:57:28;8.30;;;1.50;;
6926;SDS011;3503;50.07605000;8.86719200;2023-05-17T01:12:35;11.27;;;1.27;;
6926;SDS011;3503;50.07605000;8.86719200;2023-05-17T01:27:44;8.53;;;2.27;;
6926;SDS011;3503;50.07605000;8.86719200;2023-05-17T01:42:52;5.27;;;1.33;;
6926;SDS011;3503;50.07605000;8.86719200;2023-05-17T01:57:57;5.87;;;1.57;;
6926;SDS011;3503;50.07605000;8.86719200;2023-05-17T02:13:01;8.17;;;1.70;;
6926;SDS011;3503;50.07605000;8.86719200;2023-05-17T02:28:04;6.23;;;1.67;;
6926;SDS011;3503;50.07605000;8.86719200;2023-05-17T02:43:07;5.43;;;1.30;;
6926;SDS011;3503;50.07605000;8.86719200;2023-05-17T02:58:10;5.10;;;1.80;;
6926;SDS011;3503;50.07605000;8.86719200;2023-05-17T03:13:13;3.27;;;1.90;;
6926;SDS011;3503;50.07605000;8.86719200;2023-05-17T03:28:16;7.90;;;2.00;;
6926;SDS011;3503;50.07605000;8.86719200;2023-05-17T03:43:19;6.70;;;1.93;;
6926;SDS011;3503;50.07605000;8.86719200;2023-05-17T03:58:22;12.97;;;2.63;;
6926;SDS011;3503;50.07605000;8.86719200;2023-05-17T04:13:25;14.20;;;2.13;;
6926;SDS011;3503;50.07605000;8.86719200;2023-05-17T04:28:28;6.07;;;2.13;;
6926;SDS011;3503;50.07605000;8.86719200;2023-05-17T04:43:32;14.00;;;3.40;;
6926;SDS011;3503;50.07605000;8.86719200;2023-05-17T04:58:35;5.80;;;2.20;;
6926;SDS011;3503;50.07605000;8.86719200;2023-05-17T05:13:38;11.57;;;3.27;;
6926;SDS011;3503;50.07605000;8.86719200;2023-05-17T05:28:42;5.87;;;2.77;;
6926;SDS011;3503;50.07605000;8.86719200;2023-05-17T05:43:45;13.77;;;3.50;;
6926;SDS011;3503;50.07605000;8.86719200;2023-05-17T05:58:49;5.90;;;2.73;;
6926;SDS011;3503;50.07605000;8.86719200;2023-05-17T06:13:52;9.67;;;3.20;;
6926;SDS011;3503;50.07605000;8.86719200;2023-05-17T06:28:55;7.70;;;2.57;;
6926;SDS011;3503;50.07605000;8.86719200;2023-05-17T06:43:58;8.73;;;2.73;;
6926;SDS011;3503;50.07605000;8.86719200;2023-05-17T06:59:01;10.13;;;3.33;;
6926;SDS011;3503;50.07605000;8.86719200;2023-05-17T07:14:04;7.90;;;3.10;;
6926;SDS011;3503;50.07605000;8.86719200;2023-05-17T07:29:07;9.47;;;3.13;;
6926;SDS011;3503;50.07605000;8.86719200;2023-05-17T07:44:10;11.50;;;3.00;;
6926;SDS011;3503;50.07605000;8.86719200;2023-05-17T07:59:13;7.17;;;3.07;;
6926;SDS011;3503;50.07605000;8.86719200;2023-05-17T08:14:17;11.00;;;3.20;;
6926;SDS011;3503;50.07605000;8.86719200;2023-05-17T08:29:20;8.73;;;2.80;;
6926;SDS011;3503;50.07605000;8.86719200;2023-05-17T08:44:23;7.80;;;2.13;;
6926;SDS011;3503;50.07605000;8.86719200;2023-05-17T08:59:26;9.53;;;2.37;;
6926;SDS011;3503;50.07605000;8.86719200;2023-05-17T09:14:34;8.23;;;2.77;;
6926;SDS011;3503;50.07605000;8.86719200;2023-05-17T09:29:37;5.13;;;2.03;;
6926;SDS011;3503;50.07605000;8.86719200;2023-05-17T09:44:48;11.43;;;2.17;;
6926;SDS011;3503;50.07605000;8.86719200;2023-05-17T09:59:55;7.07;;;2.07;;
6926;SDS011;3503;50.07605000;8.86719200;2023-05-17T10:14:58;10.13;;;2.70;;
6926;SDS011;3503;50.07605000;8.86719200;2023-05-17T10:30:02;11.80;;;2.63;;
6926;SDS011;3503;50.07605000;8.86719200;2023-05-17T10:45:06;9.00;;;3.40;;
6926;SDS011;3503;50.07605000;8.86719200;2023-05-17T11:00:18;7.03;;;2.13;;
6926;SDS011;3503;50.07605000;8.86719200;2023-05-17T11:15:23;9.83;;;2.10;;
6926;SDS011;3503;50.07605000;8.86719200;2023-05-17T11:30:27;6.20;;;2.33;;
6926;SDS011;3503;50.07605000;8.86719200;2023-05-17T11:45:39;7.77;;;2.53;;
6926;SDS011;3503;50.07605000;8.86719200;2023-05-17T12:00:43;6.50;;;1.80;;
6926;SDS011;3503;50.07605000;8.86719200;2023-05-17T12:15:49;6.13;;;1.83;;
6926;SDS011;3503;50.07605000;8.86719200;2023-05-17T12:30:53;8.00;;;1.90;;
6926;SDS011;3503;50.07605000;8.86719200;2023-05-17T12:46:07;3.77;;;1.73;;
6926;SDS011;3503;50.07605000;8.86719200;2023-05-17T13:01:11;3.87;;;1.50;;
6926;SDS011;3503;50.07605000;8.86719200;2023-05-17T13:16:15;5.57;;;1.80;;
6926;SDS011;3503;50.07605000;8.86719200;2023-05-17T13:31:21;3.93;;;1.20;;
6926;SDS011;3503;50.07605000;8.86719200;2023-05-17T13:46:24;5.97;;;1.77;;
6926;SDS011;3503;50.07605000;8.86719200;2023-05-17T14:01:27;2.93;;;1.20;;
6926;SDS011;3503;50.07605000;8.86719200;2023-05-17T14:16:31;11.50;;;1.87;;
6926;SDS011;3503;50.07605000;8.86719200;2023-05-17T14:31:34;5.47;;;1.60;;
6926;SDS011;3503;50.07605000;8.86719200;2023-05-17T14:46:37;13.33;;;2.07;;
6926;SDS011;3503;50.07605000;8.86719200;2023-05-17T15:01:40;8.80;;;1.37;;
6926;SDS011;3503;50.07605000;8.86719200;2023-05-17T15:16:43;4.77;;;1.37;;
6926;SDS011;3503;50.07605000;8.86719200;2023-05-17T15:31:47;5.20;;;1.60;;
6926;SDS011;3503;50.07605000;8.86719200;2023-05-17T15:46:50;14.23;;;1.90;;
6926;SDS011;3503;50.07605000;8.86719200;2023-05-17T16:01:53;5.90;;;1.53;;
6926;SDS011;3503;50.07605000;8.86719200;2023-05-17T16:16:56;5.30;;;1.70;;
6926;SDS011;3503;50.07605000;8.86719200;2023-05-17T16:31:59;8.67;;;2.07;;
6926;SDS011;3503;50.07605000;8.86719200;2023-05-17T16:47:02;12.57;;;2.17;;
6926;SDS011;3503;50.07605000;8.86719200;2023-05-17T17:02:06;5.10;;;1.90;;
6926;SDS011;3503;50.07605000;8.86719200;2023-05-17T17:17:09;4.17;;;1.80;;
6926;SDS011;3503;50.07605000;8.86719200;2023-05-17T17:32:13;5.50;;;1.97;;
6926;SDS011;3503;50.07605000;8.86719200;2023-05-17T17:47:17;14.27;;;2.23;;
6926;SDS011;3503;50.07605000;8.86719200;2023-05-17T18:02:20;13.13;;;2.30;;
6926;SDS011;3503;50.07605000;8.86719200;2023-05-17T18:17:23;10.90;;;2.27;;
6926;SDS011;3503;50.07605000;8.86719200;2023-05-17T18:32:26;6.70;;;2.00;;
6926;SDS011;3503;50.07605000;8.86719200;2023-05-17T18:47:29;12.67;;;1.90;;
6926;SDS011;3503;50.07605000;8.86719200;2023-05-17T19:02:32;9.90;;;2.10;;
6926;SDS011;3503;50.07605000;8.86719200;2023-05-17T19:17:35;9.87;;;1.93;;
6926;SDS011;3503;50.07605000;8.86719200;2023-05-17T19:32:38;5.33;;;1.63;;
6926;SDS011;3503;50.07605000;8.86719200;2023-05-17T19:47:41;10.53;;;1.50;;
6926;SDS011;3503;50.07605000;8.86719200;2023-05-17T20:02:45;8.37;;;2.20;;
6926;SDS011;3503;50.07605000;8.86719200;2023-05-17T20:17:48;8.73;;;1.53;;
6926;SDS011;3503;50.07605000;8.86719200;2023-05-17T20:32:51;6.90;;;1.40;;
6926;SDS011;3503;50.07605000;8.86719200;2023-05-17T20:47:54;6.00;;;2.07;;
6926;SDS011;3503;50.07605000;8.86719200;2023-05-17T21:02:57;3.87;;;2.07;;
6926;SDS011;3503;50.07605000;8.86719200;2023-05-17T21:18:01;5.73;;;1.60;;
6926;SDS011;3503;50.07605000;8.86719200;2023-05-17T21:33:04;12.23;;;2.20;;
6926;SDS011;3503;50.07605000;8.86719200;2023-05-17T21:48:07;10.70;;;1.87;;
6926;SDS011;3503;50.07605000;8.86719200;2023-05-17T22:03:10;7.40;;;1.97;;
6926;SDS011;3503;50.07605000;8.86719200;2023-05-17T22:18:15;9.20;;;2.30;;
6926;SDS011;3503;50.07605000;8.86719200;2023-05-17T22:33:19;6.37;;;1.47;;
6926;SDS011;3503;50.07605000;8.86719200;2023-05-17T22:48:23;7.60;;;1.70;;
6926;SDS011;3503;50.07605000;8.86719200;2023-05-17T23:03:27;11.20;;;2.10;;
6926;SDS011;3503;50.07605000;8.86719200;2023-05-17T23:18:30;9.97;;;2.53;;
6926;SDS011;3503;50.07605000;8.86719200;2023-05-17T23:33:33;7.27;;;2.20;;
6926;SDS011;3503;50.07605000;8.86719200;2023-05-17T23:48:36;7.13;;;1.90;;
